sensor_id;sensor_type;location;lat;lon;timestamp;P1;durP1;ratioP1;P2;durP2;ratioP2
61741;SDS011;47650;49.848;9.620;2023-06-10T00:00:45;21.55;;;18.15;;
61741;SDS011;47650;49.848;9.620;2023-06-10T00:03:11;22.35;;;20.20;;
61741;SDS011;47650;49.848;9.620;2023-06-10T00:05:38;25.40;;;22.98;;
61741;SDS011;47650;49.848;9.620;2023-06-10T00:08:04;20.92;;;18.92;;
61741;SDS011;47650;49.848;9.620;2023-06-10T00:10:37;24.25;;;21.83;;
61741;SDS011;47650;49.848;9.620;2023-06-10T00:13:04;21.95;;;19.35;;
61741;SDS011;47650;49.848;9.620;2023-06-10T00:15:30;21.38;;;19.67;;
61741;SDS011;47650;49.848;9.620;2023-06-10T00:17:55;22.48;;;20.27;;
61741;SDS011;47650;49.848;9.620;2023-06-10T00:20:21;22.42;;;20.00;;
61741;SDS011;47650;49.848;9.620;2023-06-10T00:22:50;22.40;;;20.20;;
61741;SDS011;47650;49.848;9.620;2023-06-10T00:25:22;19.67;;;18.08;;
61741;SDS011;47650;49.848;9.620;2023-06-10T00:27:48;23.02;;;20.80;;
61741;SDS011;47650;49.848;9.620;2023-06-10T00:30:14;21.33;;;19.33;;
61741;SDS011;47650;49.848;9.620;2023-06-10T00:32:46;22.65;;;19.67;;
61741;SDS011;47650;49.848;9.620;2023-06-10T00:35:13;23.63;;;21.30;;
61741;SDS011;47650;49.848;9.620;2023-06-10T00:37:38;23.15;;;20.75;;
61741;SDS011;47650;49.848;9.620;2023-06-10T00:40:04;22.55;;;20.40;;
61741;SDS011;47650;49.848;9.620;2023-06-10T00:42:30;25.65;;;23.13;;
61741;SDS011;47650;49.848;9.620;2023-06-10T00:45:03;24.23;;;21.83;;
61741;SDS011;47650;49.848;9.620;2023-06-10T00:47:29;24.67;;;22.48;;
61741;SDS011;47650;49.848;9.620;2023-06-10T00:49:55;26.63;;;23.98;;
61741;SDS011;47650;49.848;9.620;2023-06-10T00:52:21;27.27;;;24.35;;
61741;SDS011;47650;49.848;9.620;2023-06-10T00:54:48;25.63;;;23.20;;
61741;SDS011;47650;49.848;9.620;2023-06-10T00:57:14;22.42;;;20.33;;
61741;SDS011;47650;49.848;9.620;2023-06-10T00:59:41;26.10;;;23.23;;
61741;SDS011;47650;49.848;9.620;2023-06-10T01:02:14;26.98;;;24.45;;
61741;SDS011;47650;49.848;9.620;2023-06-10T01:04:40;27.50;;;23.40;;
61741;SDS011;47650;49.848;9.620;2023-06-10T01:15:15;26.17;;;23.60;;
61741;SDS011;47650;49.848;9.620;2023-06-10T01:17:54;29.77;;;26.67;;
61741;SDS011;47650;49.848;9.620;2023-06-10T01:20:22;25.05;;;22.48;;
61741;SDS011;47650;49.848;9.620;2023-06-10T01:22:50;25.45;;;23.30;;
61741;SDS011;47650;49.848;9.620;2023-06-10T01:28:34;29.60;;;26.90;;
61741;SDS011;47650;49.848;9.620;2023-06-10T01:31:13;30.23;;;27.10;;
61741;SDS011;47650;49.848;9.620;2023-06-10T01:33:45;27.40;;;24.70;;
61741;SDS011;47650;49.848;9.620;2023-06-10T01:36:12;30.48;;;27.48;;
61741;SDS011;47650;49.848;9.620;2023-06-10T01:38:42;30.85;;;27.67;;
61741;SDS011;47650;49.848;9.620;2023-06-10T01:41:09;29.40;;;26.23;;
61741;SDS011;47650;49.848;9.620;2023-06-10T01:43:38;26.00;;;23.08;;
61741;SDS011;47650;49.848;9.620;2023-06-10T01:46:05;29.90;;;26.75;;
61741;SDS011;47650;49.848;9.620;2023-06-10T01:48:31;29.23;;;26.33;;
61741;SDS011;47650;49.848;9.620;2023-06-10T01:50:57;30.67;;;27.05;;
61741;SDS011;47650;49.848;9.620;2023-06-10T01:53:24;28.40;;;25.33;;
61741;SDS011;47650;49.848;9.620;2023-06-10T01:55:49;32.92;;;29.63;;
61741;SDS011;47650;49.848;9.620;2023-06-10T01:58:15;27.48;;;24.90;;
61741;SDS011;47650;49.848;9.620;2023-06-10T02:00:41;28.90;;;26.13;;
61741;SDS011;47650;49.848;9.620;2023-06-10T02:03:06;30.67;;;27.90;;
61741;SDS011;47650;49.848;9.620;2023-06-10T02:05:32;28.02;;;25.48;;
61741;SDS011;47650;49.848;9.620;2023-06-10T02:07:58;27.35;;;24.55;;
61741;SDS011;47650;49.848;9.620;2023-06-10T02:10:23;27.70;;;25.08;;
61741;SDS011;47650;49.848;9.620;2023-06-10T02:12:49;22.83;;;20.50;;
61741;SDS011;47650;49.848;9.620;2023-06-10T02:15:14;28.55;;;24.80;;
61741;SDS011;47650;49.848;9.620;2023-06-10T02:17:39;28.73;;;26.13;;
61741;SDS011;47650;49.848;9.620;2023-06-10T02:20:05;30.38;;;27.33;;
61741;SDS011;47650;49.848;9.620;2023-06-10T02:22:32;30.38;;;27.45;;
61741;SDS011;47650;49.848;9.620;2023-06-10T02:24:59;34.80;;;29.20;;
61741;SDS011;47650;49.848;9.620;2023-06-10T02:27:24;29.13;;;25.92;;
61741;SDS011;47650;49.848;9.620;2023-06-10T02:29:51;31.88;;;28.73;;
61741;SDS011;47650;49.848;9.620;2023-06-10T02:32:16;33.70;;;30.42;;
61741;SDS011;47650;49.848;9.620;2023-06-10T02:34:42;28.13;;;25.48;;
61741;SDS011;47650;49.848;9.620;2023-06-10T02:37:07;28.67;;;25.80;;
61741;SDS011;47650;49.848;9.620;2023-06-10T02:39:33;31.27;;;28.40;;
61741;SDS011;47650;49.848;9.620;2023-06-10T02:41:58;30.33;;;27.30;;
61741;SDS011;47650;49.848;9.620;2023-06-10T02:44:24;35.63;;;32.03;;
61741;SDS011;47650;49.848;9.620;2023-06-10T02:46:50;31.95;;;28.73;;
61741;SDS011;47650;49.848;9.620;2023-06-10T02:49:15;28.67;;;25.95;;
61741;SDS011;47650;49.848;9.620;2023-06-10T02:51:40;30.45;;;27.55;;
61741;SDS011;47650;49.848;9.620;2023-06-10T02:54:06;31.90;;;28.90;;
61741;SDS011;47650;49.848;9.620;2023-06-10T02:56:33;28.15;;;25.48;;
61741;SDS011;47650;49.848;9.620;2023-06-10T02:58:59;32.80;;;29.65;;
61741;SDS011;47650;49.848;9.620;2023-06-10T03:01:25;36.60;;;31.02;;
61741;SDS011;47650;49.848;9.620;2023-06-10T03:03:51;30.80;;;27.60;;
61741;SDS011;47650;49.848;9.620;2023-06-10T03:06:17;27.50;;;24.90;;
61741;SDS011;47650;49.848;9.620;2023-06-10T03:08:43;27.77;;;25.30;;
61741;SDS011;47650;49.848;9.620;2023-06-10T03:11:10;28.67;;;25.98;;
61741;SDS011;47650;49.848;9.620;2023-06-10T03:13:38;32.53;;;29.55;;
61741;SDS011;47650;49.848;9.620;2023-06-10T03:16:04;32.45;;;29.23;;
61741;SDS011;47650;49.848;9.620;2023-06-10T03:18:29;38.55;;;31.48;;
61741;SDS011;47650;49.848;9.620;2023-06-10T03:20:55;31.98;;;28.83;;
61741;SDS011;47650;49.848;9.620;2023-06-10T03:23:21;34.80;;;31.45;;
61741;SDS011;47650;49.848;9.620;2023-06-10T03:25:47;33.13;;;30.02;;
61741;SDS011;47650;49.848;9.620;2023-06-10T03:28:12;32.50;;;29.50;;
61741;SDS011;47650;49.848;9.620;2023-06-10T03:30:44;35.92;;;32.65;;
61741;SDS011;47650;49.848;9.620;2023-06-10T03:33:09;38.40;;;34.00;;
61741;SDS011;47650;49.848;9.620;2023-06-10T03:35:35;28.88;;;26.20;;
61741;SDS011;47650;49.848;9.620;2023-06-10T03:38:00;30.33;;;27.13;;
61741;SDS011;47650;49.848;9.620;2023-06-10T03:40:31;34.08;;;30.48;;
61741;SDS011;47650;49.848;9.620;2023-06-10T03:42:57;34.70;;;31.65;;
61741;SDS011;47650;49.848;9.620;2023-06-10T03:45:22;31.77;;;28.55;;
61741;SDS011;47650;49.848;9.620;2023-06-10T03:47:49;27.80;;;25.38;;
61741;SDS011;47650;49.848;9.620;2023-06-10T03:50:15;33.20;;;29.80;;
61741;SDS011;47650;49.848;9.620;2023-06-10T03:52:41;32.10;;;29.10;;
61741;SDS011;47650;49.848;9.620;2023-06-10T03:55:06;30.38;;;27.38;;
61741;SDS011;47650;49.848;9.620;2023-06-10T03:57:32;34.67;;;31.38;;
61741;SDS011;47650;49.848;9.620;2023-06-10T03:59:58;32.50;;;29.30;;
61741;SDS011;47650;49.848;9.620;2023-06-10T04:02:23;36.40;;;32.58;;
61741;SDS011;47650;49.848;9.620;2023-06-10T04:04:48;24.08;;;21.95;;
61741;SDS011;47650;49.848;9.620;2023-06-10T04:07:15;31.48;;;28.33;;
61741;SDS011;47650;49.848;9.620;2023-06-10T04:09:40;30.30;;;27.30;;
61741;SDS011;47650;49.848;9.620;2023-06-10T04:12:07;28.15;;;25.63;;
61741;SDS011;47650;49.848;9.620;2023-06-10T04:14:36;31.77;;;28.50;;
61741;SDS011;47650;49.848;9.620;2023-06-10T04:17:02;28.75;;;26.05;;
61741;SDS011;47650;49.848;9.620;2023-06-10T04:19:31;23.50;;;21.27;;
61741;SDS011;47650;49.848;9.620;2023-06-10T04:21:57;25.63;;;23.25;;
61741;SDS011;47650;49.848;9.620;2023-06-10T04:24:23;28.33;;;25.83;;
61741;SDS011;47650;49.848;9.620;2023-06-10T04:26:48;26.42;;;24.05;;
61741;SDS011;47650;49.848;9.620;2023-06-10T04:29:15;26.23;;;23.75;;
61741;SDS011;47650;49.848;9.620;2023-06-10T04:31:41;26.65;;;24.13;;
61741;SDS011;47650;49.848;9.620;2023-06-10T04:34:06;27.25;;;24.63;;
61741;SDS011;47650;49.848;9.620;2023-06-10T04:36:32;27.00;;;24.75;;
61741;SDS011;47650;49.848;9.620;2023-06-10T04:38:58;24.92;;;22.73;;
61741;SDS011;47650;49.848;9.620;2023-06-10T04:41:23;22.98;;;20.63;;
61741;SDS011;47650;49.848;9.620;2023-06-10T04:43:49;26.52;;;24.00;;
61741;SDS011;47650;49.848;9.620;2023-06-10T04:46:14;22.63;;;20.55;;
61741;SDS011;47650;49.848;9.620;2023-06-10T04:48:39;27.48;;;24.90;;
61741;SDS011;47650;49.848;9.620;2023-06-10T04:51:08;26.13;;;23.83;;
61741;SDS011;47650;49.848;9.620;2023-06-10T04:53:33;22.25;;;20.20;;
61741;SDS011;47650;49.848;9.620;2023-06-10T04:55:59;23.00;;;20.92;;
61741;SDS011;47650;49.848;9.620;2023-06-10T04:58:25;24.13;;;22.00;;
61741;SDS011;47650;49.848;9.620;2023-06-10T05:00:51;21.92;;;20.08;;
61741;SDS011;47650;49.848;9.620;2023-06-10T05:03:16;25.73;;;20.50;;
61741;SDS011;47650;49.848;9.620;2023-06-10T05:05:42;21.83;;;19.65;;
61741;SDS011;47650;49.848;9.620;2023-06-10T05:08:08;19.73;;;17.73;;
61741;SDS011;47650;49.848;9.620;2023-06-10T05:10:34;21.88;;;19.75;;
61741;SDS011;47650;49.848;9.620;2023-06-10T05:12:59;19.63;;;17.92;;
61741;SDS011;47650;49.848;9.620;2023-06-10T05:15:26;20.08;;;18.27;;
61741;SDS011;47650;49.848;9.620;2023-06-10T05:18:00;21.00;;;19.02;;
61741;SDS011;47650;49.848;9.620;2023-06-10T05:20:27;18.25;;;16.55;;
61741;SDS011;47650;49.848;9.620;2023-06-10T05:22:55;20.23;;;18.25;;
61741;SDS011;47650;49.848;9.620;2023-06-10T05:25:20;18.50;;;16.65;;
61741;SDS011;47650;49.848;9.620;2023-06-10T05:27:46;16.17;;;14.48;;
61741;SDS011;47650;49.848;9.620;2023-06-10T05:30:11;17.15;;;13.65;;
61741;SDS011;47650;49.848;9.620;2023-06-10T05:32:37;23.65;;;16.55;;
61741;SDS011;47650;49.848;9.620;2023-06-10T05:35:03;17.38;;;15.32;;
61741;SDS011;47650;49.848;9.620;2023-06-10T05:37:29;17.73;;;15.93;;
61741;SDS011;47650;49.848;9.620;2023-06-10T05:39:55;14.10;;;12.65;;
61741;SDS011;47650;49.848;9.620;2023-06-10T05:44:49;14.40;;;13.10;;
61741;SDS011;47650;49.848;9.620;2023-06-10T05:47:15;13.15;;;11.80;;
61741;SDS011;47650;49.848;9.620;2023-06-10T05:49:40;11.85;;;10.70;;
61741;SDS011;47650;49.848;9.620;2023-06-10T05:52:06;14.02;;;11.32;;
61741;SDS011;47650;49.848;9.620;2023-06-10T05:54:31;12.48;;;11.27;;
61741;SDS011;47650;49.848;9.620;2023-06-10T05:56:57;12.63;;;9.85;;
61741;SDS011;47650;49.848;9.620;2023-06-10T05:59:22;14.18;;;10.85;;
61741;SDS011;47650;49.848;9.620;2023-06-10T06:01:48;11.10;;;9.98;;
61741;SDS011;47650;49.848;9.620;2023-06-10T06:04:15;12.15;;;10.68;;
61741;SDS011;47650;49.848;9.620;2023-06-10T06:06:41;12.13;;;9.98;;
61741;SDS011;47650;49.848;9.620;2023-06-10T06:09:07;10.05;;;9.07;;
61741;SDS011;47650;49.848;9.620;2023-06-10T06:11:34;11.70;;;10.50;;
61741;SDS011;47650;49.848;9.620;2023-06-10T06:14:00;11.95;;;9.52;;
61741;SDS011;47650;49.848;9.620;2023-06-10T06:16:25;10.75;;;9.65;;
61741;SDS011;47650;49.848;9.620;2023-06-10T06:18:51;9.75;;;8.85;;
61741;SDS011;47650;49.848;9.620;2023-06-10T06:21:17;13.50;;;9.93;;
61741;SDS011;47650;49.848;9.620;2023-06-10T06:23:42;10.98;;;8.90;;
61741;SDS011;47650;49.848;9.620;2023-06-10T06:26:07;11.45;;;8.90;;
61741;SDS011;47650;49.848;9.620;2023-06-10T06:28:33;9.50;;;8.38;;
61741;SDS011;47650;49.848;9.620;2023-06-10T06:30:58;9.20;;;7.93;;
61741;SDS011;47650;49.848;9.620;2023-06-10T06:33:26;9.25;;;8.35;;
61741;SDS011;47650;49.848;9.620;2023-06-10T06:35:51;10.38;;;7.63;;
61741;SDS011;47650;49.848;9.620;2023-06-10T06:38:19;9.23;;;8.32;;
61741;SDS011;47650;49.848;9.620;2023-06-10T06:40:45;10.05;;;8.20;;
61741;SDS011;47650;49.848;9.620;2023-06-10T06:43:10;12.30;;;8.65;;
61741;SDS011;47650;49.848;9.620;2023-06-10T06:45:37;8.40;;;7.53;;
61741;SDS011;47650;49.848;9.620;2023-06-10T06:48:05;9.52;;;7.90;;
61741;SDS011;47650;49.848;9.620;2023-06-10T06:50:30;8.75;;;7.88;;
61741;SDS011;47650;49.848;9.620;2023-06-10T06:52:55;7.85;;;7.15;;
61741;SDS011;47650;49.848;9.620;2023-06-10T06:55:21;8.90;;;7.57;;
61741;SDS011;47650;49.848;9.620;2023-06-10T06:57:46;7.68;;;6.78;;
61741;SDS011;47650;49.848;9.620;2023-06-10T07:00:11;7.40;;;6.70;;
61741;SDS011;47650;49.848;9.620;2023-06-10T07:02:37;8.18;;;7.38;;
61741;SDS011;47650;49.848;9.620;2023-06-10T07:05:03;10.40;;;6.88;;
61741;SDS011;47650;49.848;9.620;2023-06-10T07:07:28;8.70;;;7.03;;
61741;SDS011;47650;49.848;9.620;2023-06-10T07:09:57;8.98;;;6.88;;
61741;SDS011;47650;49.848;9.620;2023-06-10T07:12:23;7.38;;;6.72;;
61741;SDS011;47650;49.848;9.620;2023-06-10T07:14:49;7.30;;;6.50;;
61741;SDS011;47650;49.848;9.620;2023-06-10T07:17:16;9.15;;;6.85;;
61741;SDS011;47650;49.848;9.620;2023-06-10T07:19:48;8.70;;;6.40;;
61741;SDS011;47650;49.848;9.620;2023-06-10T07:22:14;7.82;;;7.03;;
61741;SDS011;47650;49.848;9.620;2023-06-10T07:24:40;9.77;;;6.88;;
61741;SDS011;47650;49.848;9.620;2023-06-10T07:27:08;9.35;;;6.68;;
61741;SDS011;47650;49.848;9.620;2023-06-10T07:29:35;10.43;;;6.45;;
61741;SDS011;47650;49.848;9.620;2023-06-10T07:32:01;6.88;;;6.28;;
61741;SDS011;47650;49.848;9.620;2023-06-10T07:34:27;6.82;;;6.13;;
61741;SDS011;47650;49.848;9.620;2023-06-10T07:36:53;7.97;;;6.43;;
61741;SDS011;47650;49.848;9.620;2023-06-10T07:39:18;7.15;;;6.15;;
61741;SDS011;47650;49.848;9.620;2023-06-10T07:41:43;6.97;;;6.05;;
61741;SDS011;47650;49.848;9.620;2023-06-10T07:44:09;7.43;;;6.72;;
61741;SDS011;47650;49.848;9.620;2023-06-10T07:46:34;8.48;;;6.57;;
61741;SDS011;47650;49.848;9.620;2023-06-10T07:49:01;8.48;;;6.68;;
61741;SDS011;47650;49.848;9.620;2023-06-10T07:51:27;7.95;;;6.65;;
61741;SDS011;47650;49.848;9.620;2023-06-10T07:53:52;7.70;;;6.68;;
61741;SDS011;47650;49.848;9.620;2023-06-10T07:56:17;8.25;;;6.80;;
61741;SDS011;47650;49.848;9.620;2023-06-10T07:58:43;8.05;;;6.93;;
61741;SDS011;47650;49.848;9.620;2023-06-10T08:01:08;7.10;;;6.40;;
61741;SDS011;47650;49.848;9.620;2023-06-10T08:03:35;7.82;;;6.50;;
61741;SDS011;47650;49.848;9.620;2023-06-10T08:06:00;9.65;;;6.72;;
61741;SDS011;47650;49.848;9.620;2023-06-10T08:08:25;8.80;;;6.60;;
61741;SDS011;47650;49.848;9.620;2023-06-10T08:10:52;11.50;;;7.00;;
61741;SDS011;47650;49.848;9.620;2023-06-10T08:13:18;9.80;;;6.18;;
61741;SDS011;47650;49.848;9.620;2023-06-10T08:15:44;6.53;;;5.93;;
61741;SDS011;47650;49.848;9.620;2023-06-10T08:18:09;7.70;;;6.15;;
61741;SDS011;47650;49.848;9.620;2023-06-10T08:20:35;8.73;;;6.22;;
61741;SDS011;47650;49.848;9.620;2023-06-10T08:23:02;6.93;;;5.60;;
61741;SDS011;47650;49.848;9.620;2023-06-10T08:25:29;5.88;;;5.28;;
61741;SDS011;47650;49.848;9.620;2023-06-10T08:27:56;7.05;;;5.97;;
61741;SDS011;47650;49.848;9.620;2023-06-10T08:30:22;7.45;;;6.15;;
61741;SDS011;47650;49.848;9.620;2023-06-10T08:32:48;6.43;;;5.78;;
61741;SDS011;47650;49.848;9.620;2023-06-10T08:35:13;7.90;;;5.60;;
61741;SDS011;47650;49.848;9.620;2023-06-10T08:37:41;5.03;;;4.57;;
61741;SDS011;47650;49.848;9.620;2023-06-10T08:40:07;5.45;;;4.80;;
61741;SDS011;47650;49.848;9.620;2023-06-10T08:45:02;5.05;;;4.50;;
61741;SDS011;47650;49.848;9.620;2023-06-10T08:47:29;5.40;;;4.40;;
61741;SDS011;47650;49.848;9.620;2023-06-10T08:49:56;4.70;;;4.22;;
61741;SDS011;47650;49.848;9.620;2023-06-10T08:52:28;4.65;;;4.25;;
61741;SDS011;47650;49.848;9.620;2023-06-10T08:54:56;6.25;;;4.82;;
61741;SDS011;47650;49.848;9.620;2023-06-10T08:57:24;7.95;;;5.07;;
61741;SDS011;47650;49.848;9.620;2023-06-10T08:59:50;6.30;;;5.28;;
61741;SDS011;47650;49.848;9.620;2023-06-10T09:02:18;7.72;;;6.80;;
61741;SDS011;47650;49.848;9.620;2023-06-10T09:04:46;7.18;;;6.45;;
61741;SDS011;47650;49.848;9.620;2023-06-10T09:07:13;6.78;;;6.18;;
61741;SDS011;47650;49.848;9.620;2023-06-10T09:09:42;11.52;;;7.22;;
61741;SDS011;47650;49.848;9.620;2023-06-10T09:12:08;7.45;;;6.85;;
61741;SDS011;47650;49.848;9.620;2023-06-10T09:14:34;6.80;;;6.20;;
61741;SDS011;47650;49.848;9.620;2023-06-10T09:17:00;7.80;;;7.30;;
61741;SDS011;47650;49.848;9.620;2023-06-10T09:19:26;8.85;;;8.23;;
61741;SDS011;47650;49.848;9.620;2023-06-10T09:21:53;12.27;;;11.35;;
61741;SDS011;47650;49.848;9.620;2023-06-10T09:24:18;9.73;;;8.93;;
61741;SDS011;47650;49.848;9.620;2023-06-10T09:26:43;7.88;;;7.18;;
61741;SDS011;47650;49.848;9.620;2023-06-10T09:29:10;8.57;;;7.88;;
61741;SDS011;47650;49.848;9.620;2023-06-10T09:31:37;8.25;;;7.68;;
61741;SDS011;47650;49.848;9.620;2023-06-10T09:34:13;10.52;;;9.80;;
61741;SDS011;47650;49.848;9.620;2023-06-10T09:36:42;18.20;;;17.13;;
61741;SDS011;47650;49.848;9.620;2023-06-10T09:39:14;14.50;;;13.70;;
61741;SDS011;47650;49.848;9.620;2023-06-10T09:41:41;14.43;;;13.57;;
61741;SDS011;47650;49.848;9.620;2023-06-10T09:44:17;8.38;;;7.78;;
61741;SDS011;47650;49.848;9.620;2023-06-10T09:46:47;10.23;;;9.63;;
61741;SDS011;47650;49.848;9.620;2023-06-10T09:49:18;11.93;;;11.23;;
61741;SDS011;47650;49.848;9.620;2023-06-10T09:51:52;9.00;;;8.38;;
61741;SDS011;47650;49.848;9.620;2023-06-10T09:54:19;7.93;;;7.22;;
61741;SDS011;47650;49.848;9.620;2023-06-10T09:56:51;11.48;;;10.68;;
61741;SDS011;47650;49.848;9.620;2023-06-10T09:59:36;7.20;;;6.60;;
61741;SDS011;47650;49.848;9.620;2023-06-10T10:02:02;6.50;;;5.97;;
61741;SDS011;47650;49.848;9.620;2023-06-10T10:04:29;8.05;;;7.38;;
61741;SDS011;47650;49.848;9.620;2023-06-10T10:06:54;6.25;;;5.68;;
61741;SDS011;47650;49.848;9.620;2023-06-10T10:09:20;7.00;;;6.60;;
61741;SDS011;47650;49.848;9.620;2023-06-10T10:11:46;6.27;;;5.87;;
61741;SDS011;47650;49.848;9.620;2023-06-10T10:14:13;6.32;;;5.82;;
61741;SDS011;47650;49.848;9.620;2023-06-10T10:16:42;5.80;;;5.30;;
61741;SDS011;47650;49.848;9.620;2023-06-10T10:19:11;7.13;;;6.35;;
61741;SDS011;47650;49.848;9.620;2023-06-10T10:21:49;5.63;;;5.28;;
61741;SDS011;47650;49.848;9.620;2023-06-10T10:24:30;5.65;;;5.15;;
61741;SDS011;47650;49.848;9.620;2023-06-10T10:27:01;5.70;;;5.30;;
61741;SDS011;47650;49.848;9.620;2023-06-10T10:29:37;5.80;;;5.40;;
61741;SDS011;47650;49.848;9.620;2023-06-10T10:32:04;5.70;;;5.30;;
61741;SDS011;47650;49.848;9.620;2023-06-10T10:34:35;5.38;;;4.95;;
61741;SDS011;47650;49.848;9.620;2023-06-10T10:37:08;6.55;;;5.90;;
61741;SDS011;47650;49.848;9.620;2023-06-10T10:39:34;6.03;;;5.43;;
61741;SDS011;47650;49.848;9.620;2023-06-10T10:42:01;5.82;;;5.43;;
61741;SDS011;47650;49.848;9.620;2023-06-10T10:44:28;5.75;;;5.20;;
61741;SDS011;47650;49.848;9.620;2023-06-10T10:46:55;6.40;;;5.80;;
61741;SDS011;47650;49.848;9.620;2023-06-10T10:49:22;6.68;;;6.07;;
61741;SDS011;47650;49.848;9.620;2023-06-10T10:52:02;6.57;;;5.97;;
61741;SDS011;47650;49.848;9.620;2023-06-10T10:54:32;6.18;;;5.78;;
61741;SDS011;47650;49.848;9.620;2023-06-10T10:57:18;6.05;;;5.53;;
61741;SDS011;47650;49.848;9.620;2023-06-10T10:59:51;12.32;;;6.07;;
61741;SDS011;47650;49.848;9.620;2023-06-10T11:05:09;4.05;;;3.40;;
61741;SDS011;47650;49.848;9.620;2023-06-10T11:07:55;5.65;;;4.90;;
61741;SDS011;47650;49.848;9.620;2023-06-10T11:10:33;5.93;;;5.43;;
61741;SDS011;47650;49.848;9.620;2023-06-10T11:12:59;5.22;;;4.85;;
61741;SDS011;47650;49.848;9.620;2023-06-10T11:15:29;6.30;;;5.90;;
61741;SDS011;47650;49.848;9.620;2023-06-10T11:18:08;4.93;;;4.05;;
61741;SDS011;47650;49.848;9.620;2023-06-10T11:26:08;5.40;;;4.90;;
61741;SDS011;47650;49.848;9.620;2023-06-10T11:31:23;5.20;;;4.80;;
61741;SDS011;47650;49.848;9.620;2023-06-10T11:33:52;5.28;;;4.88;;
61741;SDS011;47650;49.848;9.620;2023-06-10T11:36:40;4.95;;;4.40;;
61741;SDS011;47650;49.848;9.620;2023-06-10T11:39:09;5.20;;;4.68;;
61741;SDS011;47650;49.848;9.620;2023-06-10T11:41:35;4.93;;;4.53;;
61741;SDS011;47650;49.848;9.620;2023-06-10T11:44:08;4.80;;;4.45;;
61741;SDS011;47650;49.848;9.620;2023-06-10T11:49:00;5.53;;;5.03;;
61741;SDS011;47650;49.848;9.620;2023-06-10T11:51:32;7.20;;;4.78;;
61741;SDS011;47650;49.848;9.620;2023-06-10T11:53:59;4.97;;;4.57;;
61741;SDS011;47650;49.848;9.620;2023-06-10T11:56:26;4.95;;;4.55;;
61741;SDS011;47650;49.848;9.620;2023-06-10T11:58:57;5.35;;;4.85;;
61741;SDS011;47650;49.848;9.620;2023-06-10T12:01:32;5.13;;;4.65;;
61741;SDS011;47650;49.848;9.620;2023-06-10T12:04:15;5.07;;;4.68;;
61741;SDS011;47650;49.848;9.620;2023-06-10T12:06:44;5.40;;;4.90;;
61741;SDS011;47650;49.848;9.620;2023-06-10T12:11:45;5.45;;;4.95;;
61741;SDS011;47650;49.848;9.620;2023-06-10T12:14:12;6.00;;;5.40;;
61741;SDS011;47650;49.848;9.620;2023-06-10T12:16:37;5.00;;;4.60;;
61741;SDS011;47650;49.848;9.620;2023-06-10T12:19:03;6.13;;;4.87;;
61741;SDS011;47650;49.848;9.620;2023-06-10T12:21:31;6.07;;;5.45;;
61741;SDS011;47650;49.848;9.620;2023-06-10T12:24:01;5.75;;;5.25;;
61741;SDS011;47650;49.848;9.620;2023-06-10T12:26:41;5.25;;;4.85;;
61741;SDS011;47650;49.848;9.620;2023-06-10T12:29:15;4.78;;;4.38;;
61741;SDS011;47650;49.848;9.620;2023-06-10T12:31:54;5.05;;;4.65;;
61741;SDS011;47650;49.848;9.620;2023-06-10T12:37:10;5.65;;;5.25;;
61741;SDS011;47650;49.848;9.620;2023-06-10T12:39:39;5.57;;;5.13;;
61741;SDS011;47650;49.848;9.620;2023-06-10T12:42:12;5.93;;;5.53;;
61741;SDS011;47650;49.848;9.620;2023-06-10T12:44:40;6.22;;;5.82;;
61741;SDS011;47650;49.848;9.620;2023-06-10T12:47:07;4.95;;;4.38;;
61741;SDS011;47650;49.848;9.620;2023-06-10T12:49:34;4.72;;;4.32;;
61741;SDS011;47650;49.848;9.620;2023-06-10T12:52:00;5.47;;;4.70;;
61741;SDS011;47650;49.848;9.620;2023-06-10T12:54:26;5.38;;;4.97;;
61741;SDS011;47650;49.848;9.620;2023-06-10T12:56:51;8.77;;;8.18;;
61741;SDS011;47650;49.848;9.620;2023-06-10T12:59:19;5.20;;;4.70;;
61741;SDS011;47650;49.848;9.620;2023-06-10T13:01:53;5.03;;;4.70;;
61741;SDS011;47650;49.848;9.620;2023-06-10T13:04:19;5.60;;;5.20;;
61741;SDS011;47650;49.848;9.620;2023-06-10T13:06:46;5.72;;;5.03;;
61741;SDS011;47650;49.848;9.620;2023-06-10T13:09:12;5.45;;;5.07;;
61741;SDS011;47650;49.848;9.620;2023-06-10T13:11:38;5.78;;;5.20;;
61741;SDS011;47650;49.848;9.620;2023-06-10T13:14:05;5.60;;;5.20;;
61741;SDS011;47650;49.848;9.620;2023-06-10T13:16:31;5.97;;;5.43;;
61741;SDS011;47650;49.848;9.620;2023-06-10T13:18:57;6.25;;;5.85;;
61741;SDS011;47650;49.848;9.620;2023-06-10T13:21:23;5.60;;;5.10;;
61741;SDS011;47650;49.848;9.620;2023-06-10T13:23:50;5.70;;;5.30;;
61741;SDS011;47650;49.848;9.620;2023-06-10T13:26:16;6.25;;;5.43;;
61741;SDS011;47650;49.848;9.620;2023-06-10T13:28:42;6.65;;;6.00;;
61741;SDS011;47650;49.848;9.620;2023-06-10T13:31:08;6.63;;;6.22;;
61741;SDS011;47650;49.848;9.620;2023-06-10T13:33:33;6.90;;;6.50;;
61741;SDS011;47650;49.848;9.620;2023-06-10T13:35:59;7.95;;;7.45;;
61741;SDS011;47650;49.848;9.620;2023-06-10T13:38:25;7.68;;;7.07;;
61741;SDS011;47650;49.848;9.620;2023-06-10T13:40:51;7.20;;;6.65;;
61741;SDS011;47650;49.848;9.620;2023-06-10T13:43:16;7.83;;;7.20;;
61741;SDS011;47650;49.848;9.620;2023-06-10T13:45:41;7.50;;;7.00;;
61741;SDS011;47650;49.848;9.620;2023-06-10T13:48:07;7.47;;;6.97;;
61741;SDS011;47650;49.848;9.620;2023-06-10T13:50:33;7.77;;;7.27;;
61741;SDS011;47650;49.848;9.620;2023-06-10T13:52:59;7.45;;;6.85;;
61741;SDS011;47650;49.848;9.620;2023-06-10T13:55:25;8.47;;;7.77;;
61741;SDS011;47650;49.848;9.620;2023-06-10T13:57:50;8.70;;;8.20;;
61741;SDS011;47650;49.848;9.620;2023-06-10T14:00:16;7.70;;;7.10;;
61741;SDS011;47650;49.848;9.620;2023-06-10T14:02:43;6.10;;;5.60;;
61741;SDS011;47650;49.848;9.620;2023-06-10T14:05:08;6.20;;;5.80;;
61741;SDS011;47650;49.848;9.620;2023-06-10T14:07:34;6.22;;;5.72;;
61741;SDS011;47650;49.848;9.620;2023-06-10T14:10:02;6.40;;;5.80;;
61741;SDS011;47650;49.848;9.620;2023-06-10T14:12:27;6.55;;;6.15;;
61741;SDS011;47650;49.848;9.620;2023-06-10T14:14:54;6.27;;;5.87;;
61741;SDS011;47650;49.848;9.620;2023-06-10T14:17:25;5.70;;;5.30;;
61741;SDS011;47650;49.848;9.620;2023-06-10T14:19:50;4.80;;;4.40;;
61741;SDS011;47650;49.848;9.620;2023-06-10T14:22:16;4.85;;;3.80;;
61741;SDS011;47650;49.848;9.620;2023-06-10T14:24:41;4.03;;;3.73;;
61741;SDS011;47650;49.848;9.620;2023-06-10T14:27:08;4.63;;;3.97;;
61741;SDS011;47650;49.848;9.620;2023-06-10T14:29:35;3.80;;;3.50;;
61741;SDS011;47650;49.848;9.620;2023-06-10T14:32:02;4.03;;;3.50;;
61741;SDS011;47650;49.848;9.620;2023-06-10T14:34:30;3.53;;;3.22;;
61741;SDS011;47650;49.848;9.620;2023-06-10T14:36:58;3.90;;;3.45;;
61741;SDS011;47650;49.848;9.620;2023-06-10T14:39:24;3.60;;;2.92;;
61741;SDS011;47650;49.848;9.620;2023-06-10T14:41:50;3.95;;;3.55;;
61741;SDS011;47650;49.848;9.620;2023-06-10T14:44:17;3.47;;;3.17;;
61741;SDS011;47650;49.848;9.620;2023-06-10T14:46:44;3.42;;;3.13;;
61741;SDS011;47650;49.848;9.620;2023-06-10T14:49:10;3.60;;;3.30;;
61741;SDS011;47650;49.848;9.620;2023-06-10T14:51:35;3.80;;;2.83;;
61741;SDS011;47650;49.848;9.620;2023-06-10T14:54:00;3.40;;;3.20;;
61741;SDS011;47650;49.848;9.620;2023-06-10T14:56:26;6.83;;;3.20;;
61741;SDS011;47650;49.848;9.620;2023-06-10T14:58:53;4.00;;;3.20;;
61741;SDS011;47650;49.848;9.620;2023-06-10T15:01:19;4.72;;;3.30;;
61741;SDS011;47650;49.848;9.620;2023-06-10T15:03:46;3.50;;;3.20;;
61741;SDS011;47650;49.848;9.620;2023-06-10T15:06:13;4.13;;;3.72;;
61741;SDS011;47650;49.848;9.620;2023-06-10T15:08:42;3.58;;;3.00;;
61741;SDS011;47650;49.848;9.620;2023-06-10T15:11:07;3.72;;;3.42;;